sensor_id;sensor_type;location;lat;lon;timestamp;temperature;humidity
16970;DHT22;8601;48.718;8.992;2023-03-25T00:00:21;7.60;99.90
16970;DHT22;8601;48.718;8.992;2023-03-25T00:09:33;7.50;99.90
16970;DHT22;8601;48.718;8.992;2023-03-25T00:12:24;7.50;99.90
16970;DHT22;8601;48.718;8.992;2023-03-25T00:15:09;7.50;99.90
16970;DHT22;8601;48.718;8.992;2023-03-25T00:17:52;7.50;99.90
16970;DHT22;8601;48.718;8.992;2023-03-25T00:20:47;7.50;99.90
16970;DHT22;8601;48.718;8.992;2023-03-25T00:23:50;7.40;99.90
16970;DHT22;8601;48.718;8.992;2023-03-25T00:26:46;7.40;99.90
16970;DHT22;8601;48.718;8.992;2023-03-25T00:33:15;7.50;99.90
16970;DHT22;8601;48.718;8.992;2023-03-25T00:36:20;7.40;99.90
16970;DHT22;8601;48.718;8.992;2023-03-25T00:39:23;7.40;99.90
16970;DHT22;8601;48.718;8.992;2023-03-25T00:45:22;7.40;99.90
16970;DHT22;8601;48.718;8.992;2023-03-25T00:48:10;7.40;99.90
16970;DHT22;8601;48.718;8.992;2023-03-25T00:51:18;7.40;99.90
16970;DHT22;8601;48.718;8.992;2023-03-25T00:53:51;7.40;99.90
16970;DHT22;8601;48.718;8.992;2023-03-25T00:56:19;7.40;99.90
16970;DHT22;8601;48.718;8.992;2023-03-25T00:58:47;7.40;99.90
16970;DHT22;8601;48.718;8.992;2023-03-25T01:01:16;7.40;99.90
16970;DHT22;8601;48.718;8.992;2023-03-25T01:03:48;7.40;99.90
16970;DHT22;8601;48.718;8.992;2023-03-25T01:06:23;7.40;99.90
16970;DHT22;8601;48.718;8.992;2023-03-25T01:08:53;7.30;99.90
16970;DHT22;8601;48.718;8.992;2023-03-25T01:11:23;7.30;99.90
16970;DHT22;8601;48.718;8.992;2023-03-25T01:13:53;7.30;99.90
16970;DHT22;8601;48.718;8.992;2023-03-25T01:16:21;7.30;99.90
16970;DHT22;8601;48.718;8.992;2023-03-25T01:18:48;7.20;99.90
16970;DHT22;8601;48.718;8.992;2023-03-25T01:21:15;7.20;99.90
16970;DHT22;8601;48.718;8.992;2023-03-25T01:23:43;7.20;99.90
16970;DHT22;8601;48.718;8.992;2023-03-25T01:26:11;7.30;99.90
16970;DHT22;8601;48.718;8.992;2023-03-25T01:28:38;7.30;99.90
16970;DHT22;8601;48.718;8.992;2023-03-25T01:31:10;7.30;99.90
16970;DHT22;8601;48.718;8.992;2023-03-25T01:33:37;7.30;99.90
16970;DHT22;8601;48.718;8.992;2023-03-25T01:36:05;7.30;99.90
16970;DHT22;8601;48.718;8.992;2023-03-25T01:38:34;7.30;99.90
16970;DHT22;8601;48.718;8.992;2023-03-25T01:41:01;7.30;99.90
16970;DHT22;8601;48.718;8.992;2023-03-25T01:43:29;7.30;99.90
16970;DHT22;8601;48.718;8.992;2023-03-25T01:45:57;7.30;99.90
16970;DHT22;8601;48.718;8.992;2023-03-25T01:48:29;7.30;99.90
16970;DHT22;8601;48.718;8.992;2023-03-25T01:51:04;7.30;99.90
16970;DHT22;8601;48.718;8.992;2023-03-25T01:53:32;7.20;99.90
16970;DHT22;8601;48.718;8.992;2023-03-25T01:56:02;7.20;99.90
16970;DHT22;8601;48.718;8.992;2023-03-25T01:58:31;7.30;99.90
16970;DHT22;8601;48.718;8.992;2023-03-25T02:00:58;7.30;99.90
16970;DHT22;8601;48.718;8.992;2023-03-25T02:12:29;7.10;99.90
16970;DHT22;8601;48.718;8.992;2023-03-25T02:15:06;7.10;99.90
16970;DHT22;8601;48.718;8.992;2023-03-25T02:18:19;7.10;99.90
16970;DHT22;8601;48.718;8.992;2023-03-25T02:21:44;7.10;99.90
16970;DHT22;8601;48.718;8.992;2023-03-25T02:27:34;7.10;99.90
16970;DHT22;8601;48.718;8.992;2023-03-25T02:30:36;7.00;99.90
16970;DHT22;8601;48.718;8.992;2023-03-25T02:33:29;7.10;99.90
16970;DHT22;8601;48.718;8.992;2023-03-25T02:36:38;7.00;99.90
16970;DHT22;8601;48.718;8.992;2023-03-25T02:39:13;7.00;99.90
16970;DHT22;8601;48.718;8.992;2023-03-25T02:41:46;7.00;99.90
16970;DHT22;8601;48.718;8.992;2023-03-25T02:44:20;7.00;99.90
16970;DHT22;8601;48.718;8.992;2023-03-25T02:46:52;7.00;99.90
16970;DHT22;8601;48.718;8.992;2023-03-25T02:49:23;7.00;99.90
16970;DHT22;8601;48.718;8.992;2023-03-25T02:51:54;7.00;99.90
16970;DHT22;8601;48.718;8.992;2023-03-25T02:54:25;7.00;99.90
16970;DHT22;8601;48.718;8.992;2023-03-25T02:56:54;6.90;99.90
16970;DHT22;8601;48.718;8.992;2023-03-25T02:59:24;6.90;99.90
16970;DHT22;8601;48.718;8.992;2023-03-25T03:01:58;6.90;99.90
16970;DHT22;8601;48.718;8.992;2023-03-25T03:04:26;6.80;99.90
16970;DHT22;8601;48.718;8.992;2023-03-25T03:06:55;6.80;99.90
16970;DHT22;8601;48.718;8.992;2023-03-25T03:09:33;6.80;99.90
16970;DHT22;8601;48.718;8.992;2023-03-25T03:12:15;6.70;99.90
16970;DHT22;8601;48.718;8.992;2023-03-25T03:14:59;6.70;99.90
16970;DHT22;8601;48.718;8.992;2023-03-25T03:17:36;6.70;99.90
16970;DHT22;8601;48.718;8.992;2023-03-25T03:20:15;6.70;99.90
16970;DHT22;8601;48.718;8.992;2023-03-25T03:22:47;6.60;99.90
16970;DHT22;8601;48.718;8.992;2023-03-25T03:25:22;6.60;99.90
16970;DHT22;8601;48.718;8.992;2023-03-25T03:27:55;6.60;99.90
16970;DHT22;8601;48.718;8.992;2023-03-25T03:30:28;6.60;99.90
16970;DHT22;8601;48.718;8.992;2023-03-25T03:33:04;6.50;99.90
16970;DHT22;8601;48.718;8.992;2023-03-25T03:35:37;6.50;99.90
16970;DHT22;8601;48.718;8.992;2023-03-25T03:38:08;6.40;99.90
16970;DHT22;8601;48.718;8.992;2023-03-25T03:40:40;6.40;99.90
16970;DHT22;8601;48.718;8.992;2023-03-25T03:43:14;6.40;99.90
16970;DHT22;8601;48.718;8.992;2023-03-25T03:45:43;6.50;99.90
16970;DHT22;8601;48.718;8.992;2023-03-25T03:48:13;6.40;99.90
16970;DHT22;8601;48.718;8.992;2023-03-25T03:50:45;6.40;99.90
16970;DHT22;8601;48.718;8.992;2023-03-25T03:53:19;6.40;99.90
16970;DHT22;8601;48.718;8.992;2023-03-25T03:55:52;6.50;99.90
16970;DHT22;8601;48.718;8.992;2023-03-25T03:58:23;6.40;99.90
16970;DHT22;8601;48.718;8.992;2023-03-25T04:00:56;6.50;99.90
16970;DHT22;8601;48.718;8.992;2023-03-25T04:03:30;6.50;99.90
16970;DHT22;8601;48.718;8.992;2023-03-25T04:06:02;6.50;99.90
16970;DHT22;8601;48.718;8.992;2023-03-25T04:08:37;6.50;99.90
16970;DHT22;8601;48.718;8.992;2023-03-25T04:11:10;6.50;99.90
16970;DHT22;8601;48.718;8.992;2023-03-25T04:13:41;6.50;99.90
16970;DHT22;8601;48.718;8.992;2023-03-25T04:16:10;6.50;99.90
16970;DHT22;8601;48.718;8.992;2023-03-25T04:18:37;6.60;99.90
16970;DHT22;8601;48.718;8.992;2023-03-25T04:21:05;6.60;99.90
16970;DHT22;8601;48.718;8.992;2023-03-25T04:23:34;6.60;99.90
16970;DHT22;8601;48.718;8.992;2023-03-25T04:26:05;6.60;99.90
16970;DHT22;8601;48.718;8.992;2023-03-25T04:28:33;6.60;99.90
16970;DHT22;8601;48.718;8.992;2023-03-25T04:31:01;6.60;99.90
16970;DHT22;8601;48.718;8.992;2023-03-25T04:33:31;6.50;99.90
16970;DHT22;8601;48.718;8.992;2023-03-25T04:36:00;6.50;99.90
16970;DHT22;8601;48.718;8.992;2023-03-25T04:38:28;6.60;99.90
16970;DHT22;8601;48.718;8.992;2023-03-25T04:40:55;6.50;99.90
16970;DHT22;8601;48.718;8.992;2023-03-25T04:43:23;6.50;99.90
16970;DHT22;8601;48.718;8.992;2023-03-25T04:45:51;6.50;99.90
16970;DHT22;8601;48.718;8.992;2023-03-25T04:48:22;6.40;99.90
16970;DHT22;8601;48.718;8.992;2023-03-25T04:50:50;6.30;99.90
16970;DHT22;8601;48.718;8.992;2023-03-25T04:53:19;6.40;99.90
16970;DHT22;8601;48.718;8.992;2023-03-25T04:55:47;6.40;99.90
16970;DHT22;8601;48.718;8.992;2023-03-25T04:58:14;6.30;99.90
16970;DHT22;8601;48.718;8.992;2023-03-25T05:00:41;6.30;99.90
16970;DHT22;8601;48.718;8.992;2023-03-25T05:03:11;6.30;99.90
16970;DHT22;8601;48.718;8.992;2023-03-25T05:05:40;6.30;99.90
16970;DHT22;8601;48.718;8.992;2023-03-25T05:08:07;6.30;99.90
16970;DHT22;8601;48.718;8.992;2023-03-25T05:10:36;6.30;99.90
16970;DHT22;8601;48.718;8.992;2023-03-25T05:13:04;6.30;99.90
16970;DHT22;8601;48.718;8.992;2023-03-25T05:15:33;6.30;99.90
16970;DHT22;8601;48.718;8.992;2023-03-25T05:18:04;6.40;99.90
16970;DHT22;8601;48.718;8.992;2023-03-25T05:20:34;6.40;99.90
16970;DHT22;8601;48.718;8.992;2023-03-25T05:23:02;6.40;99.90
16970;DHT22;8601;48.718;8.992;2023-03-25T05:25:29;6.50;99.90
16970;DHT22;8601;48.718;8.992;2023-03-25T05:27:58;6.50;99.90
16970;DHT22;8601;48.718;8.992;2023-03-25T05:30:27;6.50;99.90
16970;DHT22;8601;48.718;8.992;2023-03-25T05:32:57;6.60;99.90
16970;DHT22;8601;48.718;8.992;2023-03-25T05:35:24;6.60;99.90
16970;DHT22;8601;48.718;8.992;2023-03-25T05:37:53;6.60;99.90
16970;DHT22;8601;48.718;8.992;2023-03-25T05:40:21;6.60;99.90
16970;DHT22;8601;48.718;8.992;2023-03-25T05:42:50;6.60;99.90
16970;DHT22;8601;48.718;8.992;2023-03-25T05:45:19;6.60;99.90
16970;DHT22;8601;48.718;8.992;2023-03-25T05:47:46;6.60;99.90
16970;DHT22;8601;48.718;8.992;2023-03-25T05:50:13;6.70;99.90
16970;DHT22;8601;48.718;8.992;2023-03-25T05:52:41;6.60;99.90
16970;DHT22;8601;48.718;8.992;2023-03-25T05:55:14;6.60;99.90
16970;DHT22;8601;48.718;8.992;2023-03-25T05:57:41;6.60;99.90
16970;DHT22;8601;48.718;8.992;2023-03-25T06:00:09;6.60;99.90
16970;DHT22;8601;48.718;8.992;2023-03-25T06:02:37;6.60;99.90
16970;DHT22;8601;48.718;8.992;2023-03-25T06:05:08;6.70;99.90
16970;DHT22;8601;48.718;8.992;2023-03-25T06:07:38;6.70;99.90
16970;DHT22;8601;48.718;8.992;2023-03-25T06:10:08;6.70;99.90
16970;DHT22;8601;48.718;8.992;2023-03-25T06:12:36;6.70;99.90
16970;DHT22;8601;48.718;8.992;2023-03-25T06:15:05;6.60;99.90
16970;DHT22;8601;48.718;8.992;2023-03-25T06:17:34;6.70;99.90
16970;DHT22;8601;48.718;8.992;2023-03-25T06:20:05;6.60;99.90
16970;DHT22;8601;48.718;8.992;2023-03-25T06:22:37;6.60;99.90
16970;DHT22;8601;48.718;8.992;2023-03-25T06:25:05;6.70;99.90
16970;DHT22;8601;48.718;8.992;2023-03-25T06:27:32;6.70;99.90
16970;DHT22;8601;48.718;8.992;2023-03-25T06:30:08;6.70;99.90
16970;DHT22;8601;48.718;8.992;2023-03-25T06:32:35;6.70;99.90
16970;DHT22;8601;48.718;8.992;2023-03-25T06:35:03;6.70;99.90
16970;DHT22;8601;48.718;8.992;2023-03-25T06:37:32;6.70;99.90
16970;DHT22;8601;48.718;8.992;2023-03-25T06:39:59;6.70;99.90
16970;DHT22;8601;48.718;8.992;2023-03-25T06:42:26;6.80;99.90
16970;DHT22;8601;48.718;8.992;2023-03-25T06:44:53;6.80;99.90
16970;DHT22;8601;48.718;8.992;2023-03-25T06:47:22;6.80;99.90
16970;DHT22;8601;48.718;8.992;2023-03-25T06:49:49;6.80;99.90
16970;DHT22;8601;48.718;8.992;2023-03-25T06:52:16;6.90;99.90
16970;DHT22;8601;48.718;8.992;2023-03-25T06:54:43;6.90;99.90
16970;DHT22;8601;48.718;8.992;2023-03-25T06:57:10;6.90;99.90
16970;DHT22;8601;48.718;8.992;2023-03-25T06:59:37;7.00;99.90
16970;DHT22;8601;48.718;8.992;2023-03-25T07:02:04;7.00;99.90
16970;DHT22;8601;48.718;8.992;2023-03-25T07:04:33;7.00;99.90
16970;DHT22;8601;48.718;8.992;2023-03-25T07:07:00;7.10;99.90
16970;DHT22;8601;48.718;8.992;2023-03-25T07:09:27;7.00;99.90
16970;DHT22;8601;48.718;8.992;2023-03-25T07:11:55;7.00;99.90
16970;DHT22;8601;48.718;8.992;2023-03-25T07:14:22;7.10;99.90
16970;DHT22;8601;48.718;8.992;2023-03-25T07:16:49;7.10;99.90
16970;DHT22;8601;48.718;8.992;2023-03-25T07:19:16;7.10;99.90
16970;DHT22;8601;48.718;8.992;2023-03-25T07:21:44;7.10;99.90
16970;DHT22;8601;48.718;8.992;2023-03-25T07:24:12;7.10;99.90
16970;DHT22;8601;48.718;8.992;2023-03-25T07:26:39;7.10;99.90
16970;DHT22;8601;48.718;8.992;2023-03-25T07:29:06;7.10;99.90
16970;DHT22;8601;48.718;8.992;2023-03-25T07:31:33;7.20;99.90
16970;DHT22;8601;48.718;8.992;2023-03-25T07:34:00;7.20;99.90
16970;DHT22;8601;48.718;8.992;2023-03-25T07:36:27;7.30;99.90
16970;DHT22;8601;48.718;8.992;2023-03-25T07:38:55;7.30;99.90
16970;DHT22;8601;48.718;8.992;2023-03-25T07:41:23;7.40;99.90
16970;DHT22;8601;48.718;8.992;2023-03-25T07:43:50;7.40;99.90
16970;DHT22;8601;48.718;8.992;2023-03-25T07:46:17;7.50;99.90
16970;DHT22;8601;48.718;8.992;2023-03-25T07:48:44;7.50;99.90
16970;DHT22;8601;48.718;8.992;2023-03-25T07:51:11;7.50;99.90
16970;DHT22;8601;48.718;8.992;2023-03-25T07:53:38;7.60;99.90
16970;DHT22;8601;48.718;8.992;2023-03-25T07:56:10;7.70;99.90
16970;DHT22;8601;48.718;8.992;2023-03-25T07:58:38;7.70;99.90
16970;DHT22;8601;48.718;8.992;2023-03-25T08:01:05;7.90;99.90
16970;DHT22;8601;48.718;8.992;2023-03-25T08:03:33;7.90;99.90
16970;DHT22;8601;48.718;8.992;2023-03-25T08:06:03;7.90;99.90
16970;DHT22;8601;48.718;8.992;2023-03-25T08:08:31;7.90;99.90
16970;DHT22;8601;48.718;8.992;2023-03-25T08:10:58;8.00;99.90
16970;DHT22;8601;48.718;8.992;2023-03-25T08:13:28;8.00;99.90
16970;DHT22;8601;48.718;8.992;2023-03-25T08:15:55;8.10;99.90
16970;DHT22;8601;48.718;8.992;2023-03-25T08:18:22;8.30;99.90
16970;DHT22;8601;48.718;8.992;2023-03-25T08:20:49;8.20;99.90
16970;DHT22;8601;48.718;8.992;2023-03-25T08:23:16;8.10;99.90
16970;DHT22;8601;48.718;8.992;2023-03-25T08:25:46;7.90;99.90
16970;DHT22;8601;48.718;8.992;2023-03-25T08:28:14;7.80;99.90
16970;DHT22;8601;48.718;8.992;2023-03-25T08:30:43;7.70;99.90
16970;DHT22;8601;48.718;8.992;2023-03-25T08:33:11;7.60;99.90
16970;DHT22;8601;48.718;8.992;2023-03-25T08:35:38;7.40;99.90
16970;DHT22;8601;48.718;8.992;2023-03-25T08:38:05;7.20;99.90
16970;DHT22;8601;48.718;8.992;2023-03-25T08:40:33;7.00;99.90
16970;DHT22;8601;48.718;8.992;2023-03-25T08:43:03;6.90;99.90
16970;DHT22;8601;48.718;8.992;2023-03-25T08:45:30;6.80;99.90
16970;DHT22;8601;48.718;8.992;2023-03-25T08:48:00;6.90;99.90
16970;DHT22;8601;48.718;8.992;2023-03-25T08:50:28;6.90;99.90
16970;DHT22;8601;48.718;8.992;2023-03-25T08:52:56;6.90;99.90
16970;DHT22;8601;48.718;8.992;2023-03-25T08:55:23;6.90;99.90
16970;DHT22;8601;48.718;8.992;2023-03-25T08:57:50;6.90;99.90
16970;DHT22;8601;48.718;8.992;2023-03-25T09:00:17;7.00;99.90
16970;DHT22;8601;48.718;8.992;2023-03-25T09:02:48;6.90;99.90
16970;DHT22;8601;48.718;8.992;2023-03-25T09:05:18;7.00;99.90
16970;DHT22;8601;48.718;8.992;2023-03-25T09:07:45;7.00;99.90
16970;DHT22;8601;48.718;8.992;2023-03-25T09:10:12;7.00;99.90
16970;DHT22;8601;48.718;8.992;2023-03-25T09:12:40;7.00;99.90
16970;DHT22;8601;48.718;8.992;2023-03-25T09:15:10;7.10;99.90
16970;DHT22;8601;48.718;8.992;2023-03-25T09:17:38;7.30;99.90
16970;DHT22;8601;48.718;8.992;2023-03-25T09:20:06;7.40;99.90
16970;DHT22;8601;48.718;8.992;2023-03-25T09:22:35;7.40;99.90
16970;DHT22;8601;48.718;8.992;2023-03-25T09:25:03;7.50;99.90
16970;DHT22;8601;48.718;8.992;2023-03-25T09:27:32;7.50;99.90
16970;DHT22;8601;48.718;8.992;2023-03-25T09:29:59;7.60;99.90
16970;DHT22;8601;48.718;8.992;2023-03-25T09:32:26;7.60;99.90
16970;DHT22;8601;48.718;8.992;2023-03-25T09:34:53;7.60;99.90
16970;DHT22;8601;48.718;8.992;2023-03-25T09:37:20;7.70;99.90
16970;DHT22;8601;48.718;8.992;2023-03-25T09:39:49;7.70;99.90
16970;DHT22;8601;48.718;8.992;2023-03-25T09:42:39;7.80;99.90
16970;DHT22;8601;48.718;8.992;2023-03-25T09:45:21;7.90;99.90
16970;DHT22;8601;48.718;8.992;2023-03-25T09:47:55;8.00;99.90
16970;DHT22;8601;48.718;8.992;2023-03-25T09:50:25;8.10;99.90
16970;DHT22;8601;48.718;8.992;2023-03-25T09:53:00;8.00;99.90
16970;DHT22;8601;48.718;8.992;2023-03-25T09:55:33;8.30;99.90
16970;DHT22;8601;48.718;8.992;2023-03-25T09:58:13;8.50;99.90
16970;DHT22;8601;48.718;8.992;2023-03-25T10:00:45;8.70;99.90
16970;DHT22;8601;48.718;8.992;2023-03-25T10:03:18;8.80;99.90
16970;DHT22;8601;48.718;8.992;2023-03-25T10:05:58;8.90;99.90
16970;DHT22;8601;48.718;8.992;2023-03-25T10:08:35;8.90;99.90
16970;DHT22;8601;48.718;8.992;2023-03-25T10:11:09;9.10;99.90
16970;DHT22;8601;48.718;8.992;2023-03-25T10:13:45;9.20;99.90
16970;DHT22;8601;48.718;8.992;2023-03-25T10:16:24;9.30;99.90
16970;DHT22;8601;48.718;8.992;2023-03-25T10:19:03;9.30;99.90
16970;DHT22;8601;48.718;8.992;2023-03-25T10:21:40;9.20;99.90
16970;DHT22;8601;48.718;8.992;2023-03-25T10:24:16;9.30;99.90
16970;DHT22;8601;48.718;8.992;2023-03-25T10:26:48;9.50;99.90
16970;DHT22;8601;48.718;8.992;2023-03-25T10:29:18;9.70;99.90
16970;DHT22;8601;48.718;8.992;2023-03-25T10:31:50;10.00;99.90
16970;DHT22;8601;48.718;8.992;2023-03-25T10:34:19;10.00;99.90
16970;DHT22;8601;48.718;8.992;2023-03-25T10:36:52;10.10;99.90
16970;DHT22;8601;48.718;8.992;2023-03-25T10:39:23;10.00;99.90
16970;DHT22;8601;48.718;8.992;2023-03-25T10:41:56;9.80;99.90
16970;DHT22;8601;48.718;8.992;2023-03-25T10:44:26;9.90;99.90
16970;DHT22;8601;48.718;8.992;2023-03-25T10:46:56;10.00;99.90
16970;DHT22;8601;48.718;8.992;2023-03-25T10:49:27;9.90;99.90
16970;DHT22;8601;48.718;8.992;2023-03-25T10:51:57;9.80;99.90
16970;DHT22;8601;48.718;8.992;2023-03-25T10:54:27;9.70;99.90
16970;DHT22;8601;48.718;8.992;2023-03-25T10:56:58;9.70;99.90
16970;DHT22;8601;48.718;8.992;2023-03-25T10:59:29;9.70;99.90
16970;DHT22;8601;48.718;8.992;2023-03-25T11:02:01;9.60;99.90
16970;DHT22;8601;48.718;8.992;2023-03-25T11:04:33;9.70;99.90
16970;DHT22;8601;48.718;8.992;2023-03-25T11:07:08;9.90;99.90
16970;DHT22;8601;48.718;8.992;2023-03-25T11:09:39;10.00;99.90
16970;DHT22;8601;48.718;8.992;2023-03-25T11:12:07;10.10;99.90
16970;DHT22;8601;48.718;8.992;2023-03-25T11:14:36;10.30;99.90
16970;DHT22;8601;48.718;8.992;2023-03-25T11:17:09;10.40;99.90
16970;DHT22;8601;48.718;8.992;2023-03-25T11:19:39;10.40;99.90
16970;DHT22;8601;48.718;8.992;2023-03-25T11:22:09;10.50;99.90
16970;DHT22;8601;48.718;8.992;2023-03-25T11:24:41;10.40;99.90
16970;DHT22;8601;48.718;8.992;2023-03-25T11:27:14;10.70;99.90
16970;DHT22;8601;48.718;8.992;2023-03-25T11:29:50;11.00;99.90
16970;DHT22;8601;48.718;8.992;2023-03-25T11:32:22;11.10;99.90
16970;DHT22;8601;48.718;8.992;2023-03-25T11:34:49;11.40;99.90
16970;DHT22;8601;48.718;8.992;2023-03-25T11:37:18;11.50;99.90
16970;DHT22;8601;48.718;8.992;2023-03-25T11:39:51;11.50;99.60
16970;DHT22;8601;48.718;8.992;2023-03-25T11:42:29;11.40;98.40
16970;DHT22;8601;48.718;8.992;2023-03-25T11:44:58;11.30;97.70
16970;DHT22;8601;48.718;8.992;2023-03-25T11:47:30;11.50;98.30
16970;DHT22;8601;48.718;8.992;2023-03-25T11:49:57;11.40;97.00
16970;DHT22;8601;48.718;8.992;2023-03-25T11:52:26;11.60;98.40
16970;DHT22;8601;48.718;8.992;2023-03-25T11:54:58;11.50;98.70
16970;DHT22;8601;48.718;8.992;2023-03-25T11:57:32;11.30;97.50
16970;DHT22;8601;48.718;8.992;2023-03-25T12:00:04;11.40;98.90
16970;DHT22;8601;48.718;8.992;2023-03-25T12:02:38;11.70;97.40
16970;DHT22;8601;48.718;8.992;2023-03-25T12:05:11;11.70;99.00
16970;DHT22;8601;48.718;8.992;2023-03-25T12:07:44;11.80;96.30
16970;DHT22;8601;48.718;8.992;2023-03-25T12:10:17;11.10;95.30
16970;DHT22;8601;48.718;8.992;2023-03-25T12:12:52;10.80;98.60
16970;DHT22;8601;48.718;8.992;2023-03-25T12:15:29;10.80;98.60
16970;DHT22;8601;48.718;8.992;2023-03-25T12:18:11;11.00;99.10
16970;DHT22;8601;48.718;8.992;2023-03-25T12:20:52;11.10;98.30
16970;DHT22;8601;48.718;8.992;2023-03-25T12:23:31;11.50;99.90
16970;DHT22;8601;48.718;8.992;2023-03-25T12:26:08;11.60;96.70
16970;DHT22;8601;48.718;8.992;2023-03-25T12:28:50;11.80;95.10
16970;DHT22;8601;48.718;8.992;2023-03-25T12:31:32;11.80;95.40
16970;DHT22;8601;48.718;8.992;2023-03-25T12:34:11;11.50;94.80
16970;DHT22;8601;48.718;8.992;2023-03-25T12:36:48;11.30;95.40
16970;DHT22;8601;48.718;8.992;2023-03-25T12:39:39;11.00;95.10
16970;DHT22;8601;48.718;8.992;2023-03-25T12:42:14;10.60;96.90
16970;DHT22;8601;48.718;8.992;2023-03-25T12:44:54;10.40;99.60
16970;DHT22;8601;48.718;8.992;2023-03-25T12:47:32;10.00;99.20
16970;DHT22;8601;48.718;8.992;2023-03-25T12:50:19;10.00;99.50
16970;DHT22;8601;48.718;8.992;2023-03-25T12:52:52;9.90;99.90
16970;DHT22;8601;48.718;8.992;2023-03-25T12:55:30;10.20;99.90
16970;DHT22;8601;48.718;8.992;2023-03-25T12:58:19;10.40;99.90
16970;DHT22;8601;48.718;8.992;2023-03-25T13:00:53;10.70;99.60
16970;DHT22;8601;48.718;8.992;2023-03-25T13:03:49;11.00;99.90
16970;DHT22;8601;48.718;8.992;2023-03-25T13:06:27;11.40;97.60
16970;DHT22;8601;48.718;8.992;2023-03-25T13:08:59;11.00;98.30
16970;DHT22;8601;48.718;8.992;2023-03-25T13:11:32;10.80;97.20
16970;DHT22;8601;48.718;8.992;2023-03-25T13:14:05;10.70;97.70
16970;DHT22;8601;48.718;8.992;2023-03-25T13:16:36;10.70;98.30
16970;DHT22;8601;48.718;8.992;2023-03-25T13:19:06;10.80;98.10
16970;DHT22;8601;48.718;8.992;2023-03-25T13:21:38;10.80;96.20
16970;DHT22;8601;48.718;8.992;2023-03-25T13:24:11;10.20;98.90
16970;DHT22;8601;48.718;8.992;2023-03-25T13:26:41;9.80;99.70
16970;DHT22;8601;48.718;8.992;2023-03-25T13:29:15;9.80;99.90
16970;DHT22;8601;48.718;8.992;2023-03-25T13:31:45;10.00;99.90
16970;DHT22;8601;48.718;8.992;2023-03-25T13:34:19;10.20;99.90
16970;DHT22;8601;48.718;8.992;2023-03-25T13:36:57;10.50;99.90
16970;DHT22;8601;48.718;8.992;2023-03-25T13:39:31;10.70;98.90
16970;DHT22;8601;48.718;8.992;2023-03-25T13:42:05;10.90;97.10
16970;DHT22;8601;48.718;8.992;2023-03-25T13:44:39;10.80;97.30
16970;DHT22;8601;48.718;8.992;2023-03-25T13:47:16;10.90;95.20
16970;DHT22;8601;48.718;8.992;2023-03-25T13:49:48;11.20;96.40
16970;DHT22;8601;48.718;8.992;2023-03-25T13:52:16;11.60;96.60
16970;DHT22;8601;48.718;8.992;2023-03-25T13:54:46;11.90;94.80
16970;DHT22;8601;48.718;8.992;2023-03-25T13:57:38;11.80;94.10
16970;DHT22;8601;48.718;8.992;2023-03-25T14:00:22;11.50;93.50
16970;DHT22;8601;48.718;8.992;2023-03-25T14:03:23;11.30;94.50
16970;DHT22;8601;48.718;8.992;2023-03-25T14:06:14;11.10;92.50
16970;DHT22;8601;48.718;8.992;2023-03-25T14:11:59;10.80;93.90
16970;DHT22;8601;48.718;8.992;2023-03-25T14:14:28;10.60;91.50
16970;DHT22;8601;48.718;8.992;2023-03-25T14:17:01;10.60;90.70
16970;DHT22;8601;48.718;8.992;2023-03-25T14:19:32;10.80;91.60
16970;DHT22;8601;48.718;8.992;2023-03-25T14:22:07;11.00;90.60
16970;DHT22;8601;48.718;8.992;2023-03-25T14:24:36;11.30;91.70
16970;DHT22;8601;48.718;8.992;2023-03-25T14:27:11;11.60;90.70
16970;DHT22;8601;48.718;8.992;2023-03-25T14:29:43;11.80;91.40
16970;DHT22;8601;48.718;8.992;2023-03-25T14:32:29;11.80;90.80
16970;DHT22;8601;48.718;8.992;2023-03-25T14:38:20;11.40;91.30
16970;DHT22;8601;48.718;8.992;2023-03-25T14:41:07;11.50;90.60
16970;DHT22;8601;48.718;8.992;2023-03-25T14:43:37;11.70;91.60
16970;DHT22;8601;48.718;8.992;2023-03-25T14:46:19;11.90;91.60
16970;DHT22;8601;48.718;8.992;2023-03-25T14:48:49;12.20;91.70
16970;DHT22;8601;48.718;8.992;2023-03-25T14:51:42;12.20;89.40
16970;DHT22;8601;48.718;8.992;2023-03-25T14:54:18;12.60;89.80
16970;DHT22;8601;48.718;8.992;2023-03-25T14:56:52;12.60;85.40
16970;DHT22;8601;48.718;8.992;2023-03-25T14:59:22;12.70;82.50
16970;DHT22;8601;48.718;8.992;2023-03-25T15:01:51;12.60;81.80
16970;DHT22;8601;48.718;8.992;2023-03-25T15:04:27;12.60;81.90
16970;DHT22;8601;48.718;8.992;2023-03-25T15:06:56;12.50;80.70
16970;DHT22;8601;48.718;8.992;2023-03-25T15:09:26;12.50;81.80
16970;DHT22;8601;48.718;8.992;2023-03-25T15:11:57;12.50;81.50
16970;DHT22;8601;48.718;8.992;2023-03-25T15:14:28;12.60;78.10
16970;DHT22;8601;48.718;8.992;2023-03-25T15:17:02;12.60;78.70
16970;DHT22;8601;48.718;8.992;2023-03-25T15:22:33;12.20;83.90
16970;DHT22;8601;48.718;8.992;2023-03-25T15:25:10;12.00;83.70
16970;DHT22;8601;48.718;8.992;2023-03-25T15:27:48;11.90;84.20
16970;DHT22;8601;48.718;8.992;2023-03-25T15:33:43;11.90;86.20
16970;DHT22;8601;48.718;8.992;2023-03-25T15:36:38;12.00;86.40
16970;DHT22;8601;48.718;8.992;2023-03-25T15:39:30;11.90;86.00
16970;DHT22;8601;48.718;8.992;2023-03-25T15:42:21;11.80;85.40
16970;DHT22;8601;48.718;8.992;2023-03-25T15:48:24;11.70;79.90
16970;DHT22;8601;48.718;8.992;2023-03-25T15:51:03;11.60;81.70
16970;DHT22;8601;48.718;8.992;2023-03-25T15:53:49;11.60;82.70
16970;DHT22;8601;48.718;8.992;2023-03-25T15:56:23;11.60;82.30
16970;DHT22;8601;48.718;8.992;2023-03-25T15:58:56;11.50;78.50
16970;DHT22;8601;48.718;8.992;2023-03-25T16:01:27;11.60;81.10
16970;DHT22;8601;48.718;8.992;2023-03-25T16:04:01;11.50;79.10
16970;DHT22;8601;48.718;8.992;2023-03-25T16:06:30;11.50;80.30
16970;DHT22;8601;48.718;8.992;2023-03-25T16:09:00;11.50;80.50
16970;DHT22;8601;48.718;8.992;2023-03-25T16:11:27;11.50;81.40
16970;DHT22;8601;48.718;8.992;2023-03-25T16:14:10;11.40;79.80
16970;DHT22;8601;48.718;8.992;2023-03-25T16:16:39;11.30;80.70
16970;DHT22;8601;48.718;8.992;2023-03-25T16:19:12;11.30;82.70
16970;DHT22;8601;48.718;8.992;2023-03-25T16:21:41;11.10;82.00
16970;DHT22;8601;48.718;8.992;2023-03-25T16:24:11;11.00;82.10
16970;DHT22;8601;48.718;8.992;2023-03-25T16:26:41;10.90;82.30
16970;DHT22;8601;48.718;8.992;2023-03-25T16:29:15;10.90;84.10
16970;DHT22;8601;48.718;8.992;2023-03-25T16:31:51;10.90;82.60
16970;DHT22;8601;48.718;8.992;2023-03-25T16:34:18;10.80;82.60
16970;DHT22;8601;48.718;8.992;2023-03-25T16:36:47;10.90;82.90
16970;DHT22;8601;48.718;8.992;2023-03-25T16:39:15;10.90;83.80
16970;DHT22;8601;48.718;8.992;2023-03-25T16:41:43;10.90;84.10
16970;DHT22;8601;48.718;8.992;2023-03-25T16:44:15;10.80;84.20
16970;DHT22;8601;48.718;8.992;2023-03-25T16:46:45;10.90;85.80
16970;DHT22;8601;48.718;8.992;2023-03-25T16:49:14;10.80;85.20
16970;DHT22;8601;48.718;8.992;2023-03-25T16:51:43;10.80;86.60
16970;DHT22;8601;48.718;8.992;2023-03-25T16:54:21;10.70;86.10
16970;DHT22;8601;48.718;8.992;2023-03-25T16:56:49;10.80;86.50
16970;DHT22;8601;48.718;8.992;2023-03-25T16:59:23;10.70;86.30
16970;DHT22;8601;48.718;8.992;2023-03-25T17:01:53;10.70;86.90
16970;DHT22;8601;48.718;8.992;2023-03-25T17:04:22;10.70;87.20
16970;DHT22;8601;48.718;8.992;2023-03-25T17:06:55;10.60;87.00
16970;DHT22;8601;48.718;8.992;2023-03-25T17:09:25;10.70;86.50
16970;DHT22;8601;48.718;8.992;2023-03-25T17:11:59;10.60;85.80
16970;DHT22;8601;48.718;8.992;2023-03-25T17:14:31;10.60;85.80